Terminal Aerodrome Forecast
Issued by NWS

Current Version | Previous Version | Text Only | Print | Product List | Glossary Off
Versions: 1 2 3 4 5 6 7 8 9 10 11 12 13 14 15 16 17 18 19 20 21

000
FTUS41 KPBZ 271500 AAB
TAFMGW
TAF AMD
KMGW 271535Z 2716/2812 32008KT P6SM BKN018
      TEMPO 2716/2717 5SM HZ
     FM271700 30005KT P6SM SCT025=

USA.gov is the U.S. government's official web portal to all federal, state and local government web resources and services.